Time;durP1;ratioP1;P1;durP2;ratioP2;P2;SDS_P1;SDS_P2;PMS_P1;PMS_P2;Temp;Humidity;BMP_temperature;BMP_pressure;BME280_temperature;BME280_humidity;BME280_pressure;Samples;Min_cycle;Max_cycle;Signal;HPM_P1;HPM_P2
2021/08/18 00:01:03;;;;;;;9.88;4.95;;;;;;;15.07;59.91;99678.03;5067349;28;20136;-75
2021/08/18 00:03:31;;;;;;;11.05;4.93;;;;;;;15.08;59.97;99669.06;5069232;28;20052;-75
2021/08/18 00:05:58;;;;;;;7.05;4.55;;;;;;;15.08;59.88;99677.03;5066488;28;20044;-76
2021/08/18 00:08:25;;;;;;;7.13;4.30;;;;;;;15.07;59.69;99677.19;5067117;28;20625;-67
2021/08/18 00:10:52;;;;;;;13.50;5.18;;;;;;;15.06;59.72;99684.34;5068357;28;20045;-75
2021/08/18 00:13:22;;;;;;;6.82;3.72;;;;;;;15.07;59.64;99682.50;5068368;28;20614;-71
2021/08/18 00:15:51;;;;;;;10.63;4.25;;;;;;;15.06;59.47;99681.69;5070467;28;20083;-78
2021/08/18 00:18:18;;;;;;;11.43;5.47;;;;;;;15.05;59.47;99682.69;5078334;28;20063;-71
2021/08/18 00:20:46;;;;;;;6.53;3.95;;;;;;;15.04;59.44;99672.19;5078542;28;20045;-63
2021/08/18 00:23:13;;;;;;;8.82;3.95;;;;;;;15.04;59.37;99681.00;5073544;28;20044;-71
2021/08/18 00:25:40;;;;;;;7.25;3.85;;;;;;;15.03;59.43;99687.31;5076452;28;20044;-76
2021/08/18 00:28:07;;;;;;;7.95;3.85;;;;;;;15.03;59.21;99686.47;5080201;28;20323;-74
2021/08/18 00:30:34;;;;;;;9.35;4.85;;;;;;;15.03;59.27;99684.63;5073214;28;20047;-69
2021/08/18 00:33:01;;;;;;;11.00;3.85;;;;;;;15.03;59.27;99684.63;5068128;28;20052;-69
2021/08/18 00:35:28;;;;;;;8.60;4.68;;;;;;;15.03;59.11;99681.16;5064777;28;20056;-78
2021/08/18 00:37:57;;;;;;;7.60;4.78;;;;;;;15.04;59.32;99683.66;5065221;28;20044;-73
2021/08/18 00:40:24;;;;;;;7.15;4.18;;;;;;;15.05;59.14;99685.34;5065327;28;20151;-69
2021/08/18 00:42:51;;;;;;;8.48;4.22;;;;;;;15.07;59.08;99685.16;5064732;28;20052;-65
2021/08/18 00:45:20;;;;;;;8.68;4.78;;;;;;;15.08;58.95;99687.69;5075909;28;20049;-69
2021/08/18 00:47:49;;;;;;;8.95;3.90;;;;;;;15.10;58.85;99682.22;5070570;28;20045;-69
2021/08/18 00:50:18;;;;;;;6.22;4.60;;;;;;;15.12;58.78;99684.72;5070795;28;20298;-71
2021/08/18 00:52:46;;;;;;;9.02;4.47;;;;;;;15.13;58.77;99683.75;5077052;28;20049;-68
2021/08/18 00:55:18;;;;;;;10.13;5.35;;;;;;;15.16;58.86;99686.94;5076370;28;20078;-72
2021/08/18 00:57:45;;;;;;;8.98;3.30;;;;;;;15.18;58.60;99694.72;5073039;28;20055;-72
2021/08/18 01:00:14;;;;;;;8.52;3.75;;;;;;;15.19;58.47;99696.41;5074605;28;20056;-69
2021/08/18 01:02:44;;;;;;;8.50;4.20;;;;;;;15.19;58.51;99693.75;5076253;28;20156;-74
2021/08/18 01:05:13;;;;;;;6.88;3.28;;;;;;;15.20;58.45;99698.09;5074588;28;20646;-69
2021/08/18 01:07:40;;;;;;;8.35;4.38;;;;;;;15.21;58.32;99695.25;5070338;28;20044;-78
2021/08/18 01:10:09;;;;;;;9.45;4.03;;;;;;;15.21;58.38;99691.75;5074344;28;20055;-69
2021/08/18 01:12:39;;;;;;;8.65;3.78;;;;;;;15.21;58.32;99695.25;5075247;28;20170;-71
2021/08/18 01:15:08;;;;;;;7.00;3.63;;;;;;;15.21;58.41;99695.25;5073767;28;20052;-71
2021/08/18 01:17:39;;;;;;;10.27;4.88;;;;;;;15.23;58.18;99697.75;5068684;28;20546;-67
2021/08/18 01:20:07;;;;;;;7.28;3.30;;;;;;;15.22;58.21;99693.44;5072236;28;20044;-71
2021/08/18 01:22:34;;;;;;;9.10;4.25;;;;;;;15.23;58.21;99689.78;5070770;28;20044;-74
2021/08/18 01:25:02;;;;;;;8.35;4.00;;;;;;;15.25;58.04;99693.13;5071171;28;20056;-72
2021/08/18 01:27:30;;;;;;;8.07;4.38;;;;;;;15.26;58.14;99682.31;5069977;28;20072;-71
2021/08/18 01:29:58;;;;;;;9.23;5.10;;;;;;;15.28;58.05;99684.84;5070310;28;20044;-66
2021/08/18 01:32:25;;;;;;;7.03;3.97;;;;;;;15.29;57.91;99676.69;5068126;28;20048;-65
2021/08/18 01:34:52;;;;;;;6.93;4.35;;;;;;;15.32;57.92;99683.53;5067943;28;20040;-68
2021/08/18 01:37:19;;;;;;;6.95;4.05;;;;;;;15.37;57.93;99678.56;5066173;28;20500;-67
2021/08/18 01:39:46;;;;;;;7.25;4.10;;;;;;;15.42;57.51;99678.94;5067760;28;20048;-66
2021/08/18 01:42:13;;;;;;;9.80;4.55;;;;;;;15.48;57.54;99681.00;5066568;28;20102;-65
2021/08/18 01:44:40;;;;;;;6.40;4.40;;;;;;;15.48;57.50;99680.13;5067589;28;20037;-65
2021/08/18 01:47:08;;;;;;;10.80;4.68;;;;;;;15.49;57.53;99672.00;5067725;28;20048;-63
2021/08/18 01:49:35;;;;;;;10.05;5.05;;;;;;;15.50;57.53;99680.81;5067721;28;20480;-62
2021/08/18 01:52:02;;;;;;;10.55;5.50;;;;;;;15.55;57.48;99675.03;5067465;28;20048;-62
2021/08/18 01:54:30;;;;;;;9.05;5.07;;;;;;;15.59;57.36;99671.06;5067022;28;20128;-62
2021/08/18 01:56:56;;;;;;;7.90;5.28;;;;;;;15.68;57.39;99664.78;5067283;28;20063;-64
2021/08/18 01:59:26;;;;;;;8.77;4.85;;;;;;;15.77;56.89;99669.22;5067804;28;20052;-70
2021/08/18 02:01:53;;;;;;;10.38;5.93;;;;;;;15.82;56.73;99661.56;5066651;28;20063;-65
2021/08/18 02:04:21;;;;;;;7.57;4.57;;;;;;;15.88;56.64;99669.91;5067181;28;20535;-64
2021/08/18 02:06:48;;;;;;;10.32;5.63;;;;;;;15.92;56.62;99671.25;5066340;28;20044;-63
2021/08/18 02:09:15;;;;;;;9.57;5.25;;;;;;;15.95;56.51;99671.75;5067945;28;20051;-67
2021/08/18 02:11:42;;;;;;;10.13;6.10;;;;;;;16.00;56.42;99674.78;5069227;28;20555;-64
2021/08/18 02:14:10;;;;;;;14.45;6.45;;;;;;;16.01;56.65;99671.13;5066622;28;20072;-64
2021/08/18 02:16:36;;;;;;;10.25;5.00;;;;;;;16.05;56.51;99661.81;5071503;28;20055;-64
2021/08/18 02:19:03;;;;;;;9.93;5.50;;;;;;;16.11;56.47;99654.19;5068576;28;20040;-64
2021/08/18 02:21:32;;;;;;;10.77;5.40;;;;;;;16.15;56.43;99666.16;5066984;28;20067;-64
2021/08/18 02:23:58;;;;;;;12.15;5.95;;;;;;;16.17;56.23;99662.38;5066996;28;20048;-65
2021/08/18 02:26:25;;;;;;;10.32;5.97;;;;;;;16.16;56.20;99666.00;5065390;28;20052;-66
2021/08/18 02:28:52;;;;;;;10.20;6.57;;;;;;;16.19;56.21;99668.34;5067286;28;20044;-68
2021/08/18 02:31:19;;;;;;;9.15;5.60;;;;;;;16.20;56.07;99672.66;5067080;28;20053;-63
2021/08/18 02:33:46;;;;;;;12.82;5.53;;;;;;;16.22;56.13;99673.38;5067115;28;20131;-65
2021/08/18 02:36:13;;;;;;;10.85;6.63;;;;;;;16.21;56.15;99669.03;5065010;28;20428;-66
2021/08/18 02:38:41;;;;;;;10.18;4.88;;;;;;;16.24;56.04;99668.72;5066495;28;20048;-64
2021/08/18 02:41:08;;;;;;;10.35;5.15;;;;;;;16.27;55.86;99669.38;5066930;28;20048;-63
2021/08/18 02:43:35;;;;;;;9.63;5.43;;;;;;;16.27;55.76;99656.06;5066904;28;20071;-62
2021/08/18 02:46:02;;;;;;;10.45;5.82;;;;;;;16.25;55.82;99656.22;5066905;28;20052;-69
2021/08/18 02:48:29;;;;;;;9.60;5.03;;;;;;;16.28;55.61;99649.72;5066739;28;20110;-75
2021/08/18 02:50:57;;;;;;;8.60;5.57;;;;;;;16.27;55.63;99646.22;5067236;28;20052;-65
2021/08/18 02:53:24;;;;;;;10.55;5.90;;;;;;;16.28;55.50;99649.72;5031272;28;20052;-66
2021/08/18 02:55:53;;;;;;;10.55;5.65;;;;;;;16.33;55.70;99660.72;5067559;28;20388;-73
2021/08/18 02:58:20;;;;;;;9.50;5.72;;;;;;;16.35;55.70;99656.06;5068416;28;20090;-64
2021/08/18 03:00:46;;;;;;;10.13;5.60;;;;;;;16.32;55.71;99657.22;5066242;28;20414;-65
2021/08/18 03:03:13;;;;;;;8.95;5.55;;;;;;;16.35;55.46;99656.06;5066081;28;20063;-66
2021/08/18 03:05:41;;;;;;;9.23;5.45;;;;;;;16.35;55.50;99656.06;5065939;28;20048;-69
2021/08/18 03:08:07;;;;;;;13.95;6.78;;;;;;;16.36;55.48;99657.75;5069299;28;20056;-64
2021/08/18 03:10:34;;;;;;;9.15;4.93;;;;;;;16.37;55.49;99660.25;5071110;28;20048;-65
2021/08/18 03:13:02;;;;;;;13.00;6.40;;;;;;;16.35;55.44;99656.91;5069500;28;20048;-64
2021/08/18 03:15:29;;;;;;;11.25;6.15;;;;;;;16.35;55.50;99664.91;5067059;28;20051;-67
2021/08/18 03:17:56;;;;;;;8.77;5.05;;;;;;;16.34;55.57;99657.06;5068839;28;20051;-66
2021/08/18 03:20:23;;;;;;;9.73;5.43;;;;;;;16.33;55.48;99653.59;5068210;28;20041;-65
2021/08/18 03:22:50;;;;;;;11.70;8.07;;;;;;;16.32;55.57;99656.41;5067726;28;20048;-83
2021/08/18 03:25:17;;;;;;;11.75;6.72;;;;;;;16.27;55.81;99642.72;5067481;28;20040;-70
2021/08/18 03:27:44;;;;;;;11.98;5.85;;;;;;;16.17;55.94;99651.72;5067443;28;20050;-67
2021/08/18 03:30:14;;;;;;;9.77;6.25;;;;;;;16.11;56.30;99648.84;5069582;28;20049;-63
2021/08/18 03:32:41;;;;;;;9.65;5.65;;;;;;;16.02;56.42;99648.81;5075816;28;20858;-65
2021/08/18 03:35:09;;;;;;;8.55;5.70;;;;;;;15.96;56.72;99646.78;5069835;28;20041;-65
2021/08/18 03:37:35;;;;;;;13.63;7.68;;;;;;;15.91;56.76;99643.78;5065551;28;20103;-63
2021/08/18 03:40:03;;;;;;;10.88;5.57;;;;;;;15.84;56.96;99648.09;5066422;28;20047;-64
2021/08/18 03:42:30;;;;;;;12.00;7.07;;;;;;;15.80;57.17;99658.22;5066547;28;20050;-65
2021/08/18 03:44:56;;;;;;;9.73;6.80;;;;;;;15.73;57.31;99657.16;5065965;28;20056;-63
2021/08/18 03:47:25;;;;;;;12.63;6.55;;;;;;;15.71;57.38;99663.63;5066007;28;20083;-70
2021/08/18 03:49:51;;;;;;;9.77;6.03;;;;;;;15.65;57.62;99662.44;5065553;28;20052;-63
2021/08/18 03:52:19;;;;;;;11.02;7.30;;;;;;;15.62;57.75;99665.44;5065603;28;20047;-65
2021/08/18 03:54:45;;;;;;;11.20;5.88;;;;;;;15.58;58.00;99669.41;5066532;28;20136;-65
2021/08/18 03:57:12;;;;;;;11.90;6.60;;;;;;;15.58;57.97;99675.56;5067279;28;20052;-63
2021/08/18 03:59:39;;;;;;;9.50;5.57;;;;;;;15.63;57.88;99667.09;5068168;28;20454;-64
2021/08/18 04:02:06;;;;;;;13.57;6.40;;;;;;;15.67;57.88;99671.13;5068254;28;20528;-63
2021/08/18 04:04:35;;;;;;;13.05;6.00;;;;;;;15.73;57.66;99667.81;5067369;28;20517;-65
2021/08/18 04:07:01;;;;;;;10.90;5.95;;;;;;;15.79;57.62;99675.19;5065105;28;20261;-65
2021/08/18 04:09:28;;;;;;;14.65;6.95;;;;;;;15.85;57.56;99679.88;5069278;28;20618;-66
2021/08/18 04:11:55;;;;;;;16.10;6.82;;;;;;;15.98;57.26;99684.75;5068150;28;20071;-67
2021/08/18 04:14:22;;;;;;;10.80;6.20;;;;;;;16.09;57.22;99683.63;5068280;28;20060;-64
2021/08/18 04:16:49;;;;;;;11.45;6.30;;;;;;;16.16;57.00;99679.34;5064483;28;20044;-66
2021/08/18 04:19:16;;;;;;;12.10;6.13;;;;;;;16.28;56.84;99687.88;5064971;28;20072;-65
2021/08/18 04:21:44;;;;;;;14.80;6.57;;;;;;;16.37;56.75;99692.22;5065237;28;20049;-68
2021/08/18 04:24:11;;;;;;;13.27;8.32;;;;;;;16.47;56.59;99696.56;5065142;28;20045;-65
2021/08/18 04:26:38;;;;;;;11.85;6.68;;;;;;;16.53;56.41;99702.09;5066747;28;20056;-68
2021/08/18 04:29:05;;;;;;;11.10;6.38;;;;;;;16.58;56.33;99699.78;5066091;28;20053;-64
2021/08/18 04:31:32;;;;;;;10.55;5.85;;;;;;;16.65;56.29;99707.13;5065203;28;20507;-71
2021/08/18 04:33:59;;;;;;;10.90;5.90;;;;;;;16.56;56.57;99712.41;5065885;28;20041;-66
2021/08/18 04:36:25;;;;;;;10.77;6.90;;;;;;;16.58;56.63;99715.78;5069360;28;20052;-64
2021/08/18 04:38:54;;;;;;;15.45;6.57;;;;;;;16.82;56.01;99714.16;5069300;28;20409;-65
2021/08/18 04:41:21;;;;;;;11.65;7.30;;;;;;;16.88;55.71;99723.34;5070230;28;20040;-74
2021/08/18 04:43:47;;;;;;;10.10;5.88;;;;;;;16.92;55.71;99728.16;5069102;28;20056;-71
2021/08/18 04:46:14;;;;;;;12.43;6.85;;;;;;;17.00;55.67;99714.84;5067064;28;20063;-68
2021/08/18 04:48:41;;;;;;;10.43;6.28;;;;;;;17.08;55.46;99716.69;5070274;28;20053;-64
2021/08/18 04:51:08;;;;;;;10.65;6.25;;;;;;;17.09;55.31;99717.53;5068955;28;20381;-65
2021/08/18 04:53:35;;;;;;;13.48;6.13;;;;;;;17.14;55.19;99725.84;5066600;28;20075;-62
2021/08/18 04:56:03;;;;;;;11.20;6.20;;;;;;;17.17;55.06;99726.34;5068465;28;20049;-66
2021/08/18 04:58:31;;;;;;;10.20;5.65;;;;;;;17.22;55.07;99731.19;5070451;28;20041;-66
2021/08/18 05:00:58;;;;;;;12.45;6.72;;;;;;;17.25;55.06;99728.22;5068047;28;20041;-68
2021/08/18 05:03:25;;;;;;;8.98;6.47;;;;;;;17.26;55.01;99729.84;5067268;28;20060;-62
2021/08/18 05:05:52;;;;;;;9.65;6.63;;;;;;;17.28;55.00;99730.53;5067343;28;20182;-70
2021/08/18 05:08:19;;;;;;;14.13;7.18;;;;;;;17.33;54.78;99733.53;5067774;28;20438;-67
2021/08/18 05:10:46;;;;;;;16.38;7.13;;;;;;;17.37;54.60;99734.84;5069560;28;20055;-75
2021/08/18 05:13:14;;;;;;;13.20;6.47;;;;;;;17.43;54.66;99745.88;5069364;28;20064;-62
2021/08/18 05:15:42;;;;;;;10.45;6.90;;;;;;;17.44;54.56;99737.69;5068816;28;20055;-71
2021/08/18 05:18:08;;;;;;;14.00;7.90;;;;;;;17.47;54.55;99737.34;5070066;28;20052;-66
2021/08/18 05:20:35;;;;;;;10.30;6.43;;;;;;;17.48;54.41;99732.84;5069967;28;20048;-70
2021/08/18 05:23:02;;;;;;;14.32;8.07;;;;;;;17.52;54.59;99739.50;5070556;28;20044;-75
2021/08/18 05:25:29;;;;;;;11.25;7.53;;;;;;;17.58;54.34;99739.66;5071619;28;20064;-80
2021/08/18 05:28:03;;;;;;;14.27;8.20;;;;;;;17.63;54.38;99743.66;5071149;28;20049;-72
2021/08/18 05:30:32;;;;;;;13.10;6.38;;;;;;;17.69;54.33;99741.16;5068179;28;20120;-72
2021/08/18 05:32:59;;;;;;;13.95;7.50;;;;;;;17.72;54.29;99746.16;5077077;28;20615;-65
2021/08/18 05:35:26;;;;;;;13.48;8.45;;;;;;;17.82;54.04;99747.81;5067327;28;20051;-65
2021/08/18 05:37:53;;;;;;;13.48;6.88;;;;;;;17.98;53.68;99739.78;5068801;28;20056;-68
2021/08/18 05:40:19;;;;;;;12.20;8.00;;;;;;;18.06;53.61;99750.47;5067578;28;20049;-67
2021/08/18 05:42:46;;;;;;;13.27;7.72;;;;;;;18.11;53.41;99745.44;5066343;28;20045;-67
2021/08/18 05:45:13;;;;;;;12.48;7.47;;;;;;;18.17;53.39;99741.22;5067895;28;20048;-66
2021/08/18 05:47:42;;;;;;;13.65;8.18;;;;;;;18.19;53.42;99749.09;5067867;28;20053;-65
2021/08/18 05:50:09;;;;;;;11.95;7.00;;;;;;;18.17;53.22;99751.94;5068331;28;20045;-70
2021/08/18 05:52:36;;;;;;;10.38;6.85;;;;;;;18.23;53.33;99753.06;5067070;28;20048;-66
2021/08/18 05:55:04;;;;;;;11.57;7.07;;;;;;;18.26;53.35;99752.72;5067909;28;20049;-67
2021/08/18 05:57:31;;;;;;;11.25;6.72;;;;;;;18.33;53.05;99756.38;5066969;28;20048;-65
2021/08/18 05:59:58;;;;;;;17.60;7.53;;;;;;;18.42;52.97;99749.97;5067332;28;20505;-74
2021/08/18 06:02:25;;;;;;;15.00;7.88;;;;;;;18.41;52.85;99752.81;5068041;28;20064;-66
2021/08/18 06:04:53;;;;;;;10.05;6.90;;;;;;;18.44;52.74;99750.63;5067276;28;20497;-63
2021/08/18 06:07:20;;;;;;;13.77;7.40;;;;;;;18.48;52.65;99743.91;5066448;28;20041;-63
2021/08/18 06:09:47;;;;;;;12.25;7.03;;;;;;;18.56;52.59;99752.91;5068341;28;20056;-64
2021/08/18 06:12:14;;;;;;;13.27;7.20;;;;;;;18.66;52.03;99751.69;5064976;28;20044;-75
2021/08/18 06:14:41;;;;;;;13.18;7.85;;;;;;;18.69;52.17;99740.63;5066749;28;20485;-67
2021/08/18 06:17:08;;;;;;;12.90;7.25;;;;;;;18.81;51.92;99745.56;5069136;28;20049;-66
2021/08/18 06:19:35;;;;;;;15.45;7.25;;;;;;;18.89;51.67;99742.88;5067632;28;20055;-62
2021/08/18 06:22:03;;;;;;;12.50;7.15;;;;;;;19.03;51.31;99741.25;5067538;28;20067;-65
2021/08/18 06:24:40;;;;;;;15.90;7.18;;;;;;;19.04;51.37;99745.63;5067446;28;20716;-65
2021/08/18 06:27:08;;;;;;;11.52;7.38;;;;;;;19.11;50.98;99749.25;5066082;28;20052;-65
2021/08/18 06:29:35;;;;;;;14.52;6.88;;;;;;;19.13;51.26;99749.06;5067281;28;20044;-66
2021/08/18 06:32:05;;;;;;;13.82;8.27;;;;;;;19.16;51.25;99746.88;5069738;28;20477;-66
2021/08/18 06:34:32;;;;;;;16.33;6.57;;;;;;;19.19;51.44;99751.84;5067761;28;20045;-66
2021/08/18 06:37:02;;;;;;;15.02;7.97;;;;;;;19.14;51.30;99751.56;5069259;28;20049;-69
2021/08/18 06:39:32;;;;;;;15.23;7.43;;;;;;;19.03;51.69;99754.66;5064861;28;20044;-72
2021/08/18 06:42:00;;;;;;;14.73;7.68;;;;;;;18.94;51.74;99753.03;5066748;28;20357;-66
2021/08/18 06:44:27;;;;;;;13.25;7.45;;;;;;;18.84;51.97;99743.41;5066859;28;20048;-70
2021/08/18 06:46:59;;;;;;;11.65;6.97;;;;;;;18.81;52.03;99746.44;5066350;28;20044;-70
2021/08/18 06:49:26;;;;;;;10.57;6.07;;;;;;;18.87;51.75;99740.38;5066909;28;20127;-68
2021/08/18 06:51:53;;;;;;;11.30;8.00;;;;;;;19.02;51.37;99742.28;5065286;28;20044;-64
2021/08/18 06:54:19;;;;;;;11.95;6.22;;;;;;;19.18;51.07;99736.81;5065065;28;20387;-67
2021/08/18 06:56:49;;;;;;;14.35;6.72;;;;;;;19.26;51.24;99742.06;5064847;28;20037;-64
2021/08/18 06:59:16;;;;;;;14.73;7.57;;;;;;;19.24;51.33;99735.25;5067351;28;20045;-67
2021/08/18 07:01:43;;;;;;;16.08;7.32;;;;;;;19.24;51.54;99733.41;5063831;28;20059;-64
2021/08/18 07:04:10;;;;;;;14.02;8.15;;;;;;;19.20;51.09;99728.59;5061804;28;20045;-66
2021/08/18 07:06:37;;;;;;;14.98;7.95;;;;;;;19.12;51.35;99732.16;5064179;28;20048;-69
2021/08/18 07:09:04;;;;;;;13.85;8.32;;;;;;;19.10;51.23;99734.19;5062971;28;20051;-65
2021/08/18 07:11:31;;;;;;;14.50;6.93;;;;;;;19.09;51.33;99728.00;5063055;28;20055;-68
2021/08/18 07:14:00;;;;;;;15.73;7.13;;;;;;;19.09;50.75;99728.00;5063345;28;20401;-76
2021/08/18 07:16:28;;;;;;;12.63;6.40;;;;;;;19.18;50.63;99731.44;5067583;28;20477;-65
2021/08/18 07:18:54;;;;;;;10.75;6.95;;;;;;;19.24;49.90;99733.41;5074783;28;20060;-71
2021/08/18 07:21:22;;;;;;;11.60;7.43;;;;;;;19.18;49.98;99731.44;5078921;28;20844;-76
2021/08/18 07:23:49;;;;;;;10.15;7.15;;;;;;;19.29;50.11;99733.69;5071868;28;20048;-72
2021/08/18 07:26:16;;;;;;;12.88;7.03;;;;;;;19.41;50.00;99742.13;5052737;28;20072;-69
2021/08/18 07:28:44;;;;;;;11.77;7.45;;;;;;;19.49;49.33;99739.38;5066160;28;20040;-69
2021/08/18 07:31:13;;;;;;;11.88;7.95;;;;;;;19.64;48.87;99739.41;5067209;28;20049;-65
2021/08/18 07:33:40;;;;;;;10.35;6.95;;;;;;;19.80;48.50;99751.00;5067855;28;20048;-67
2021/08/18 07:36:08;;;;;;;13.70;6.80;;;;;;;20.07;48.51;99746.84;5074200;28;20603;-67
2021/08/18 07:38:36;;;;;;;11.48;6.50;;;;;;;20.54;47.45;99736.69;5070243;28;20496;-64
2021/08/18 07:41:04;;;;;;;11.02;6.13;;;;;;;20.83;46.91;99743.84;5067825;28;20044;-66
2021/08/18 07:43:31;;;;;;;11.02;7.40;;;;;;;21.01;46.96;99746.09;5070160;28;20049;-70
2021/08/18 07:45:58;;;;;;;10.95;7.85;;;;;;;21.24;46.61;99747.75;5069322;28;20052;-67
2021/08/18 07:48:28;;;;;;;12.20;6.97;;;;;;;21.13;46.23;99747.25;5073574;28;20500;-77
2021/08/18 07:50:55;;;;;;;11.02;6.45;;;;;;;21.24;46.46;99751.28;5080112;28;20063;-81
2021/08/18 07:53:22;;;;;;;12.75;6.53;;;;;;;21.64;46.33;99745.41;5072911;28;20632;-77
2021/08/18 07:55:49;;;;;;;13.00;7.22;;;;;;;22.11;45.16;99738.47;5068761;28;20056;-73
2021/08/18 07:58:16;;;;;;;10.80;6.28;;;;;;;22.24;44.63;99743.94;5066975;28;20067;-78
2021/08/18 08:00:43;;;;;;;11.10;7.20;;;;;;;22.38;44.52;99752.06;5064385;28;20041;-83
2021/08/18 08:03:11;;;;;;;11.80;6.40;;;;;;;22.41;44.18;99743.59;5070214;28;20056;-84
2021/08/18 08:05:39;;;;;;;14.88;6.68;;;;;;;22.16;44.55;99741.38;5068019;28;20074;-70
2021/08/18 08:08:06;;;;;;;11.15;7.35;;;;;;;21.97;45.00;99732.22;5068157;28;20223;-72
2021/08/18 08:10:33;;;;;;;13.43;6.70;;;;;;;21.98;44.97;99743.78;5070702;28;20044;-80
2021/08/18 08:13:07;;;;;;;13.57;8.27;;;;;;;21.96;44.76;99749.34;5052280;28;20551;-73
2021/08/18 08:15:35;;;;;;;12.55;7.78;;;;;;;22.17;44.69;99743.06;5075775;28;20059;-72
2021/08/18 08:18:02;;;;;;;10.63;6.15;;;;;;;22.62;43.77;99745.34;5072719;28;20072;-71
2021/08/18 08:20:29;;;;;;;10.32;6.50;;;;;;;22.96;43.43;99741.69;5068527;28;20052;-68
2021/08/18 08:23:00;;;;;;;10.80;7.03;;;;;;;23.37;42.82;99738.03;5066775;28;20040;-74
2021/08/18 08:25:26;;;;;;;9.98;6.65;;;;;;;23.48;42.54;99739.28;5067385;28;20052;-67
2021/08/18 08:27:53;;;;;;;13.02;8.25;;;;;;;23.35;42.22;99745.47;5067871;28;20664;-67
2021/08/18 08:30:20;;;;;;;12.70;7.10;;;;;;;23.43;42.43;99747.16;5069113;28;20128;-68
2021/08/18 08:32:49;;;;;;;11.68;7.10;;;;;;;23.82;41.62;99743.63;5066185;28;20213;-66
2021/08/18 08:35:17;;;;;;;14.25;6.35;;;;;;;24.15;40.80;99749.97;5066755;28;20044;-73
2021/08/18 08:37:43;;;;;;;11.15;6.00;;;;;;;23.99;40.92;99740.47;5068299;28;20098;-68
2021/08/18 08:40:14;;;;;;;10.43;6.47;;;;;;;23.59;41.10;99745.91;5067178;28;20656;-77
2021/08/18 08:42:41;;;;;;;10.27;6.05;;;;;;;22.95;41.63;99737.34;5070909;28;20080;-74
2021/08/18 08:45:12;;;;;;;10.82;6.10;;;;;;;22.91;41.40;99739.59;5072848;28;20044;-76
2021/08/18 08:47:40;;;;;;;12.98;7.18;;;;;;;23.07;40.76;99735.72;5070716;28;20079;-70
2021/08/18 08:50:10;;;;;;;10.75;7.32;;;;;;;23.23;40.28;99737.19;5071493;28;20059;-77
2021/08/18 08:52:37;;;;;;;11.82;6.72;;;;;;;23.16;40.81;99733.66;5069200;28;20055;-70
2021/08/18 08:55:05;;;;;;;10.38;6.55;;;;;;;23.07;41.00;99732.22;5069664;28;20040;-72
2021/08/18 08:57:46;;;;;;;8.57;5.20;;;;;;;22.90;41.72;99731.72;5068869;28;20049;-67
2021/08/18 09:00:14;;;;;;;10.18;5.80;;;;;;;22.86;41.75;99730.47;5065807;28;20585;-66
2021/08/18 09:02:42;;;;;;;10.98;6.05;;;;;;;22.88;42.17;99734.63;5067754;28;20057;-68
2021/08/18 09:05:09;;;;;;;9.45;4.95;;;;;;;22.74;41.46;99724.84;5068599;28;20049;-73
2021/08/18 09:07:36;;;;;;;9.95;6.60;;;;;;;22.70;41.88;99716.34;5066539;28;20151;-79
2021/08/18 09:10:07;;;;;;;10.35;5.95;;;;;;;22.36;41.65;99709.22;5070112;28;20040;-78
2021/08/18 09:12:40;;;;;;;9.35;6.20;;;;;;;21.99;43.00;99723.94;5069494;28;20083;-79
2021/08/18 09:15:17;;;;;;;8.63;4.80;;;;;;;22.12;42.53;99727.50;5067063;28;20098;-74
2021/08/18 09:17:45;;;;;;;8.27;5.75;;;;;;;22.33;42.78;99721.22;5070094;28;20041;-71
2021/08/18 09:20:15;;;;;;;11.65;6.50;;;;;;;22.63;41.82;99731.66;5071769;28;20113;-72
2021/08/18 09:22:45;;;;;;;8.75;4.45;;;;;;;22.42;41.22;99732.66;5077020;28;20040;-70
2021/08/18 09:25:18;;;;;;;9.98;5.13;;;;;;;22.41;41.79;99727.47;5078655;28;20348;-73
2021/08/18 09:27:51;;;;;;;17.40;6.70;;;;;;;22.45;41.19;99723.31;5067239;28;20044;-68
2021/08/18 09:30:21;;;;;;;10.98;5.55;;;;;;;22.19;41.28;99730.25;5066211;28;20098;-70
2021/08/18 09:32:48;;;;;;;11.30;6.07;;;;;;;21.96;41.74;99731.34;5066266;28;20058;-74
2021/08/18 09:35:18;;;;;;;9.48;5.35;;;;;;;21.98;42.08;99722.28;5067243;28;20044;-71
2021/08/18 09:37:53;;;;;;;10.20;5.32;;;;;;;22.19;41.43;99718.66;5064279;28;20572;-66
2021/08/18 09:40:22;;;;;;;11.57;5.60;;;;;;;22.22;41.38;99723.63;5064973;28;20052;-70
2021/08/18 09:42:52;;;;;;;7.68;5.55;;;;;;;22.58;40.22;99712.63;5065979;28;20125;-69
2021/08/18 09:45:22;;;;;;;10.18;5.82;;;;;;;22.57;40.11;99710.13;5066958;28;20045;-74
2021/08/18 09:47:55;;;;;;;9.55;5.95;;;;;;;22.36;40.16;99732.63;5066271;28;20044;-72
2021/08/18 09:50:23;;;;;;;11.98;5.85;;;;;;;22.42;40.59;99724.56;5067078;28;20052;-68
2021/08/18 09:52:50;;;;;;;8.77;5.28;;;;;;;22.52;40.72;99713.41;5068600;28;20056;-72
2021/08/18 09:55:23;;;;;;;11.98;5.38;;;;;;;22.71;39.85;99718.03;5071004;28;20488;-67
2021/08/18 09:57:52;;;;;;;8.13;5.28;;;;;;;22.89;40.29;99713.94;5065687;28;20489;-67
2021/08/18 10:00:19;;;;;;;13.20;6.30;;;;;;;23.24;38.93;99703.00;5066940;28;20079;-69
2021/08/18 10:02:47;;;;;;;10.30;5.15;;;;;;;23.55;39.32;99717.69;5069255;28;20059;-67
2021/08/18 10:05:14;;;;;;;8.05;4.55;;;;;;;23.52;38.75;99707.34;5068854;28;20044;-66
2021/08/18 10:07:41;;;;;;;9.32;4.93;;;;;;;23.34;38.80;99706.09;5064545;28;20051;-65
2021/08/18 10:10:09;;;;;;;11.10;5.63;;;;;;;22.97;39.29;99694.88;5067808;28;20055;-72
2021/08/18 10:12:36;;;;;;;10.27;5.05;;;;;;;22.64;40.10;99709.09;5066456;28;20056;-69
2021/08/18 10:15:06;;;;;;;9.23;6.20;;;;;;;22.82;39.89;99697.75;5068531;28;20047;-69
2021/08/18 10:17:39;;;;;;;10.32;4.60;;;;;;;22.90;39.69;99708.34;5064206;28;20060;-69
2021/08/18 10:20:08;;;;;;;10.80;5.03;;;;;;;22.98;40.05;99701.91;5065632;28;20052;-70
2021/08/18 10:22:35;;;;;;;8.80;5.57;;;;;;;23.02;40.20;99703.16;5064828;28;20139;-66
2021/08/18 10:25:44;;;;;;;10.05;5.22;;;;;;;22.86;39.07;99688.22;5066098;28;20052;-73
2021/08/18 10:28:11;;;;;;;10.80;5.18;;;;;;;22.66;39.97;99703.53;4984248;28;20058;-74
2021/08/18 10:30:51;;;;;;;8.25;5.18;;;;;;;22.88;39.44;99704.19;4983994;28;20046;-74
2021/08/18 10:33:55;;;;;;;8.20;5.10;;;;;;;22.86;39.42;99695.47;4981593;28;20056;-74
2021/08/18 10:37:01;;;;;;;8.20;5.53;;;;;;;22.61;39.48;99696.03;4981225;28;20133;-74
2021/08/18 10:39:30;;;;;;;9.70;5.72;;;;;;;22.49;40.09;99693.13;4985360;28;20133;-74
2021/08/18 10:41:57;;;;;;;6.78;4.72;;;;;;;22.44;41.03;99702.84;4984096;28;20197;-74
2021/08/18 10:44:38;;;;;;;6.85;4.65;;;;;;;22.59;40.15;99692.72;4984366;28;20051;-75
2021/08/18 10:47:26;;;;;;;8.15;5.30;;;;;;;22.95;39.74;99688.03;4987515;28;20050;-70
2021/08/18 10:49:55;;;;;;;9.60;4.35;;;;;;;23.01;39.30;99689.88;4984990;28;20173;-74
2021/08/18 10:52:56;;;;;;;7.38;4.30;;;;;;;23.05;39.80;99693.88;4987631;28;20054;-74
2021/08/18 10:55:32;;;;;;;8.10;4.90;;;;;;;22.80;39.83;99682.84;4983777;28;20057;-72
2021/08/18 10:58:01;;;;;;;7.80;3.97;;;;;;;22.80;40.53;99689.06;4969474;28;20057;-76
2021/08/18 11:00:38;;;;;;;9.23;5.05;;;;;;;22.87;40.48;99691.75;4986247;28;20043;-72
2021/08/18 11:03:08;;;;;;;9.20;4.35;;;;;;;23.29;39.58;99687.03;4996581;28;20118;-73
2021/08/18 11:05:52;;;;;;;6.85;4.78;;;;;;;23.58;39.19;99683.06;5066659;28;20224;-74
2021/08/18 11:08:28;;;;;;;7.93;5.07;;;;;;;23.59;40.17;99687.41;5066775;28;20041;-75
2021/08/18 11:11:18;;;;;;;9.35;4.35;;;;;;;23.57;40.13;99683.25;5066576;28;20271;-71
2021/08/18 11:13:49;;;;;;;9.75;4.18;;;;;;;23.35;40.00;99678.09;5068283;28;20392;-74
2021/08/18 11:16:24;;;;;;;9.48;4.72;;;;;;;23.28;40.00;99686.22;5066827;28;20045;-75
2021/08/18 11:18:59;;;;;;;9.27;5.85;;;;;;;23.05;39.60;99677.72;5068063;28;20052;-75
2021/08/18 11:21:31;;;;;;;8.50;5.67;;;;;;;22.96;39.25;99679.75;5070423;28;20093;-72
2021/08/18 11:24:00;;;;;;;6.95;3.67;;;;;;;23.21;39.30;99676.44;5068170;28;20074;-77
2021/08/18 11:26:37;;;;;;;8.40;5.38;;;;;;;23.37;39.08;99681.44;5065942;28;20044;-73
2021/08/18 11:29:07;;;;;;;10.05;5.78;;;;;;;23.53;39.35;99682.03;5062987;28;20102;-69
2021/08/18 11:31:45;;;;;;;7.10;4.57;;;;;;;23.87;38.98;99667.44;5063423;28;20049;-74
2021/08/18 11:34:25;;;;;;;9.60;5.03;;;;;;;23.52;38.37;99680.38;5067372;28;20067;-69
2021/08/18 16:23:24;;;;;;;3.97;3.33;;;;;;;20.55;43.23;99649.84;5125264;27;20587;-80